SAZMSABE

Guest
Details From SAZM - Mar Del Plata Brig Gen D Bartolome
To SABE - Aeroparque Jorge Newbery
Flight Number -
Tags Generated
Created
Modified
Stats Distance 207 nm / 383 km
Max Altitude 0 ft / 0 m
Waypoints 2
Social Downloads 9
Likes 0
Share VATSIM

Download

Looking for another format? Having issues loading an existing format? Contact us
Advertisement - Login to hide

Notes

Generated

Route

SAZM SABE

ID Type Via Altitude Latitude Longitude Leg Dist Tot Dist Heading (true) Name
O SAZM APT - 0 ft / 0 m -37.92886˚ -57.58393˚ - 0 nm - -
O SABE APT - 0 ft / 0 m -34.55416˚ -58.42526˚ 206 nm 206 nm 348° / 349° -

Altitude Profile

Advertisement - Login to hide

Weather


0- 5 10 15 20 25 30 35+ Temperature / ° C

Clouds and Precipitation
Forecast for 2017-12-11 18:00 UTC. Updated 12 minutes ago

Ground ~20,000 ft ~40,000 ft Winds

SAZM

Details ICAO SAZM (MDQ)
Name Mar Del Plata Brig Gen D Bartolome
Region Argentina
Timezone America/Argentina/Buenos_Aires (UTC-3.0)
Stats Elevation 71 ft / 22 m (AMSL)
Location -37.934190° -57.573395°
Runways 1
Magnetic Variation 7.578° W

METAR

SAZM 111700Z 09006KT 050V120 CAVOK 16/10 Q1017

Decode

TAF

TAF SAZM 111100Z 1112/1212 18010KT 9999 SCT030 TX21/1118Z TN09/1209Z BECMG 1117/1119 09010KT BECMG 1122/1124 07015KT 7000 NSC

Decode

Departure Runways

ID Width Length Bearing (true) Bearing (mag) Surface Threshold Offset Overrun Length
13 197 ft / 60 m 7,204 ft / 2,196 m 122.66° 130.24° Asphalt 0 ft / 0 m 196 ft / 60 m
31 197 ft / 60 m 7,204 ft / 2,196 m 302.65° 310.23° Asphalt 0 ft / 0 m 0 ft / 0 m

SABE

Details ICAO SABE (AEP)
Name Aeroparque Jorge Newbery
Region Argentina
Timezone Unknown (UTC+0.0)
Stats Elevation 17 ft / 5 m (AMSL)
Location -34.559414° -58.415749°
Runways 1
Magnetic Variation 8.979° W

METAR

SABE 111700Z 09011KT CAVOK 21/11 Q1017

Decode

TAF

TAF SABE 111100Z 1112/1212 16010KT CAVOK TX24/1118Z TN15/1112Z BECMG 1114/116 11015KT BECMG 1204/1206 02015KT

Decode

Destination Runways

ID Width Length Bearing (true) Bearing (mag) Surface Threshold Offset Overrun Length
13 131 ft / 40 m 6,882 ft / 2,098 m 123.87° 132.85° Concrete 0 ft / 0 m 791 ft / 241 m
31 131 ft / 40 m 6,882 ft / 2,098 m 303.86° 312.84° Concrete 991 ft / 302 m 0 ft / 0 m

Approach Navaids

Runway Type Ident Frequency Range Bearing (true) Bearing (mag) Slope Elevation
13 Localiser AE 109.50 MHz 18 nm / 33 km 123.95° 132.93° - 17 ft / 5 m (AMSL)
13 Glidescope AE 109.50 MHz 10 nm / 19 km 124.47° 133.45° 3.00° 17 ft / 5 m (AMSL)
13 DME AE 109.50 MHz 18 nm / 33 km - - - 17 ft / 5 m (AMSL)

Popular Alternatives